createdAt,value
2022-09-26T00:06:08.374Z,0
2022-09-26T00:15:45.205Z,0
2022-09-26T00:25:22.077Z,0
2022-09-26T00:34:59.001Z,0
2022-09-26T00:44:36.051Z,0
2022-09-26T00:54:13.101Z,0
2022-09-26T01:13:27.549Z,0
2022-09-26T01:23:04.622Z,0
2022-09-26T01:32:41.462Z,0
2022-09-26T01:42:18.217Z,0
2022-09-26T01:51:55.054Z,0
2022-09-26T02:11:09.420Z,0
2022-09-26T02:20:46.604Z,0
2022-09-26T02:30:23.579Z,0
2022-09-26T02:40:00.738Z,0
2022-09-26T02:49:37.768Z,0
2022-09-26T02:59:15.188Z,0
2022-09-26T03:08:51.739Z,0
2022-09-26T03:18:27.699Z,0
2022-09-26T03:28:03.824Z,0
2022-09-26T03:37:40.557Z,0
2022-09-26T03:47:16.990Z,0
2022-09-26T03:56:53.835Z,0
2022-09-26T04:06:30.568Z,0
2022-09-26T04:16:07.158Z,0
2022-09-26T04:25:43.808Z,0
2022-09-26T04:35:20.143Z,0
2022-09-26T04:44:56.821Z,0
2022-09-26T04:54:34.049Z,0
2022-09-26T05:04:10.756Z,0
2022-09-26T05:23:24.223Z,0
2022-09-26T05:33:01.035Z,0
2022-09-26T05:42:38.032Z,0
2022-09-26T05:52:15.088Z,0
2022-09-26T06:01:52.461Z,0
2022-09-26T06:11:29.554Z,0
2022-09-26T06:21:06.970Z,0
2022-09-26T06:40:21.375Z,0
2022-09-26T06:49:59.323Z,0
2022-09-26T06:59:37.225Z,0
2022-09-26T07:09:14.341Z,0
2022-09-26T07:18:51.655Z,0
2022-09-26T07:28:29.096Z,0
2022-09-26T08:06:57.531Z,0
2022-09-26T08:16:35.318Z,0
2022-09-26T08:26:13.161Z,0
2022-09-26T08:35:51.388Z,0
2022-09-26T08:45:30.932Z,1
2022-09-26T08:55:12.197Z,1
2022-09-26T09:04:53.744Z,1
2022-09-26T09:14:26.976Z,1
2022-09-26T09:24:06.693Z,1
2022-09-26T09:33:47.407Z,1
2022-09-26T09:43:25.961Z,1
2022-09-26T09:53:03.972Z,1
2022-09-26T10:02:40.881Z,1
2022-09-26T10:12:17.301Z,1
2022-09-26T10:22:20.702Z,1
2022-09-26T10:31:58.764Z,7
2022-09-26T10:41:46.269Z,7
2022-09-26T10:51:10.743Z,7
2022-09-26T11:00:47.040Z,8
2022-09-26T11:10:24.915Z,6
2022-09-26T11:29:58.013Z,1
2022-09-26T11:49:08.737Z,7
2022-09-26T11:58:50.395Z,9
2022-09-26T12:08:31.425Z,8
2022-09-26T12:27:17.447Z,1
2022-09-26T12:36:44.965Z,1
2022-09-26T12:46:15.177Z,1
2022-09-26T12:55:45.396Z,1
2022-09-26T13:05:24.967Z,0
2022-09-26T13:14:59.937Z,1
2022-09-26T13:24:33.893Z,0
2022-09-26T13:34:10.198Z,1
2022-09-26T13:43:57.229Z,7
2022-09-26T13:53:54.526Z,6
2022-09-26T14:03:34.067Z,4
2022-09-26T14:13:20.229Z,4
2022-09-26T14:22:46.219Z,4
2022-09-26T14:32:36.618Z,5
2022-09-26T15:00:58.606Z,0
2022-09-26T15:10:32.960Z,2
2022-09-26T15:20:05.793Z,0
2022-09-26T15:29:35.413Z,0
2022-09-26T15:39:07.660Z,0
2022-09-26T15:48:43.213Z,0
2022-09-26T15:58:19.057Z,0
2022-09-26T16:07:54.822Z,0
2022-09-26T16:17:30.830Z,0
2022-09-26T16:27:07.490Z,0
2022-09-26T16:36:43.796Z,0
2022-09-26T16:46:20.895Z,0
2022-09-26T17:05:33.883Z,0
2022-09-26T17:24:47.079Z,0
2022-09-26T17:34:23.850Z,0
2022-09-26T17:43:59.924Z,0
2022-09-26T17:53:36.520Z,0
2022-09-26T18:03:15.646Z,0
2022-09-26T18:12:49.227Z,0
2022-09-26T18:32:03.436Z,0
2022-09-26T18:41:39.707Z,0
2022-09-26T18:51:16.365Z,0
2022-09-26T19:10:29.973Z,0
2022-09-26T19:20:06.882Z,0
2022-09-26T19:39:20.871Z,0
2022-09-26T20:08:11.853Z,0
2022-09-26T20:17:49.180Z,0
2022-09-26T20:37:04.057Z,0
2022-09-26T20:46:41.164Z,0
2022-09-26T20:56:18.152Z,0
2022-09-26T21:05:55.209Z,0
2022-09-26T21:15:32.703Z,0
2022-09-26T21:25:10.223Z,0
2022-09-26T21:34:47.448Z,0
2022-09-26T21:44:24.196Z,0
2022-09-26T21:54:00.919Z,0
2022-09-26T22:03:37.971Z,0
2022-09-26T22:13:15.235Z,0
2022-09-26T22:22:52.205Z,0
2022-09-26T22:32:29.520Z,0
2022-09-26T22:42:06.754Z,0
2022-09-26T23:01:21.325Z,0
2022-09-26T23:10:58.615Z,0
2022-09-26T23:20:35.862Z,0
2022-09-26T23:30:13.299Z,0
2022-09-26T23:39:52.816Z,0
2022-09-26T23:49:28.711Z,0
2022-09-26T23:59:05.304Z,0
